Weather at May Airport

Public forecast

Using degrees Fahrenheit for public forecast. Weather courtesy of forecast.io.

Closest aviation weather report (METAR) to May Airport

Closest report is Burlington Alamance Regional Airport, 10.8 nm (20.1 km) ENE. Retrieved 2021/01/20 11:54 UTC (54 minutes ago):

KBUY 201154Z AUTO 24005KT 10SM CLR 03/M01 A3008 RMK AO2 SLP187 T00331006 10067 20011 53011

Closest aviation forecast (TAF) to May Airport

Closest forecast is Piedmont Triad International Airport, 13.4 nm (24.9 km) WNW. Retrieved 2021/01/20 12:22 UTC (26 minutes ago):

TAF KGSO 201120Z 2012/2112 30011G22KT P6SM SKC FM202200 30004KT P6SM BKN250